createdAt,value
2023-04-20T00:01:05.235Z,100286.90
2023-04-20T00:03:35.581Z,100288.81
2023-04-20T00:06:04.326Z,100290.27
2023-04-20T00:08:32.423Z,100288.30
2023-04-20T00:11:00.767Z,100286.59
2023-04-20T00:13:28.995Z,100285.38
2023-04-20T00:15:57.036Z,100282.63
2023-04-20T00:18:25.228Z,100279.78
2023-04-20T00:20:53.345Z,100275.09
2023-04-20T00:23:21.421Z,100271.87
2023-04-20T00:25:49.823Z,100272.29
2023-04-20T00:28:17.919Z,100272.26
2023-04-20T00:30:46.149Z,100267.56
2023-04-20T00:33:14.418Z,100266.27
2023-04-20T00:35:43.505Z,100262.83
2023-04-20T00:38:11.644Z,100263.05
2023-04-20T00:40:39.753Z,100264.80
2023-04-20T00:43:11.701Z,100264.23
2023-04-20T00:45:39.752Z,100261.09
2023-04-20T00:48:08.103Z,100261.13
2023-04-20T00:50:36.191Z,100255.54
2023-04-20T00:53:04.326Z,100255.93
2023-04-20T00:55:32.406Z,100252.55
2023-04-20T00:58:00.626Z,100246.48
2023-04-20T01:00:28.776Z,100244.75
2023-04-20T01:02:57.293Z,100242.52
2023-04-20T01:05:25.897Z,100237.41
2023-04-20T01:07:54.049Z,100236.23
2023-04-20T01:10:22.361Z,100239.34
2023-04-20T01:12:50.533Z,100238.42
2023-04-20T01:15:18.615Z,100237.12
2023-04-20T01:17:47.829Z,100237.29
2023-04-20T01:20:16.278Z,100238.27
2023-04-20T01:22:48.232Z,100239.40
2023-04-20T01:25:17.193Z,100235.93
2023-04-20T01:27:45.590Z,100236.30
2023-04-20T01:30:13.818Z,100236.64
2023-04-20T01:32:42.020Z,100235.86
2023-04-20T01:35:10.911Z,100233.53
2023-04-20T01:37:40.111Z,100233.15
2023-04-20T01:40:12.320Z,100232.56
2023-04-20T01:42:41.096Z,100229.73
2023-04-20T01:45:09.485Z,100229.86
2023-04-20T01:47:38.152Z,100230.15
2023-04-20T01:50:08.518Z,100225.52
2023-04-20T01:52:37.031Z,100225.27
2023-04-20T01:55:06.210Z,100219.84
2023-04-20T01:57:34.621Z,100221.54
2023-04-20T02:00:04.251Z,100220.69
2023-04-20T02:02:42.899Z,100220.73
2023-04-20T02:05:11.202Z,100215.27
2023-04-20T02:07:39.338Z,100208.83
2023-04-20T02:10:08.482Z,100207.38
2023-04-20T02:12:36.765Z,100210.52
2023-04-20T02:15:06.926Z,100207.20
2023-04-20T02:17:36.870Z,100206.31
2023-04-20T02:20:11.486Z,100204.20
2023-04-20T02:22:40.078Z,100203.09
2023-04-20T02:25:10.540Z,100202.63
2023-04-20T02:27:39.233Z,100199.79
2023-04-20T02:30:08.493Z,100202.17
2023-04-20T02:32:37.415Z,100197.58
2023-04-20T02:35:05.868Z,100193.55
2023-04-20T02:37:34.158Z,100189.69
2023-04-20T02:40:02.781Z,100186.78
2023-04-20T02:42:31.144Z,100189.33
2023-04-20T02:44:59.981Z,100191.16
2023-04-20T02:47:28.164Z,100189.65
2023-04-20T02:49:56.208Z,100187.09
2023-04-20T02:52:24.782Z,100181.67
2023-04-20T02:54:53.269Z,100180.63
2023-04-20T02:57:21.397Z,100184.51
2023-04-20T02:59:49.962Z,100178.52
2023-04-20T03:02:28.492Z,100182.66
2023-04-20T03:04:57.047Z,100185.17
2023-04-20T03:07:26.343Z,100184.61
2023-04-20T03:09:54.721Z,100185.96
2023-04-20T03:12:23.072Z,100188.48
2023-04-20T03:14:59.780Z,100188.08
2023-04-20T03:17:39.878Z,100188.50
2023-04-20T03:20:09.266Z,100183.89
2023-04-20T03:22:37.923Z,100184.09
2023-04-20T03:25:07.833Z,100185.59
2023-04-20T03:28:05.327Z,100188.30
2023-04-20T03:30:33.652Z,100182.33
2023-04-20T03:33:08.621Z,100183.36
2023-04-20T03:35:39.875Z,100181.94
2023-04-20T03:38:07.999Z,100181.42
2023-04-20T03:40:36.501Z,100181.05
2023-04-20T03:43:05.957Z,100180.58
2023-04-20T03:45:34.102Z,100180.39
2023-04-20T03:48:02.394Z,100180.09
2023-04-20T03:50:31.268Z,100181.52
2023-04-20T03:52:59.628Z,100182.15
2023-04-20T03:55:28.129Z,100182.08
2023-04-20T03:58:00.676Z,100181.23
2023-04-20T04:00:31.116Z,100186.36
2023-04-20T04:03:02.283Z,100183.41
2023-04-20T04:05:30.772Z,100185.77
2023-04-20T04:07:58.991Z,100183.48
2023-04-20T04:10:27.136Z,100184.55
2023-04-20T04:12:55.278Z,100185.77
2023-04-20T04:15:23.845Z,100186.23
2023-04-20T04:18:00.836Z,100182.08
2023-04-20T04:20:29.717Z,100181.20
2023-04-20T04:22:58.424Z,100182.63
2023-04-20T04:25:47.006Z,100185.30
2023-04-20T04:28:15.560Z,100185.62
2023-04-20T04:30:49.776Z,100183.77
2023-04-20T04:33:19.170Z,100183.59
2023-04-20T04:35:48.777Z,100178.67
2023-04-20T04:38:17.579Z,100178.10
2023-04-20T04:40:47.843Z,100176.76
2023-04-20T04:43:16.141Z,100175.98
2023-04-20T04:45:53.756Z,100175.15
2023-04-20T04:48:21.854Z,100176.10
2023-04-20T04:50:49.903Z,100176.05
2023-04-20T04:53:18.203Z,100172.16
2023-04-20T04:55:46.621Z,100173.51
2023-04-20T04:58:15.347Z,100166.61
2023-04-20T05:00:43.868Z,100167.13
2023-04-20T05:03:12.069Z,100168.74
2023-04-20T05:05:40.301Z,100170.13
2023-04-20T05:08:08.425Z,100166.50
2023-04-20T05:10:36.644Z,100159.20
2023-04-20T05:13:04.799Z,100156.67
2023-04-20T05:15:33.304Z,100159.48
2023-04-20T05:18:02.392Z,100166.34
2023-04-20T05:20:30.477Z,100166.18
2023-04-20T05:22:58.653Z,100169.12
2023-04-20T05:25:26.812Z,100168.39
2023-04-20T05:27:55.132Z,100171.50
2023-04-20T05:30:23.370Z,100172.17
2023-04-20T05:32:52.481Z,100174.52
2023-04-20T05:35:21.598Z,100174.31
2023-04-20T05:37:49.892Z,100174.46
2023-04-20T05:40:17.909Z,100174.48
2023-04-20T05:42:46.156Z,100174.94
2023-04-20T05:45:14.187Z,100175.23
2023-04-20T05:47:42.382Z,100174.23
2023-04-20T05:50:10.985Z,100173.10
2023-04-20T05:52:39.114Z,100183.34
2023-04-20T05:55:07.637Z,100180.20
2023-04-20T05:57:42.749Z,100183.73
2023-04-20T06:00:14.561Z,100180.59
2023-04-20T06:02:43.278Z,100179.34
2023-04-20T06:05:11.727Z,100179.00
2023-04-20T06:07:40.457Z,100177.34
2023-04-20T06:10:09.024Z,100174.77
2023-04-20T06:12:37.462Z,100175.33
2023-04-20T06:15:10.960Z,100176.19
2023-04-20T06:17:41.090Z,100171.89
2023-04-20T06:20:10.617Z,100167.63
2023-04-20T06:22:45.626Z,100168.73
2023-04-20T06:25:13.956Z,100167.99
2023-04-20T06:27:42.462Z,100163.02
2023-04-20T06:30:11.257Z,100164.55
2023-04-20T06:32:39.799Z,100163.65
2023-04-20T06:35:08.728Z,100155.87
2023-04-20T06:37:37.224Z,100154.25
2023-04-20T06:40:08.509Z,100147.11
2023-04-20T06:42:37.664Z,100137.29
2023-04-20T06:45:06.699Z,100137.97
2023-04-20T06:47:35.030Z,100139.46
2023-04-20T06:50:05.064Z,100143.16
2023-04-20T06:52:33.522Z,100138.66
2023-04-20T06:55:01.659Z,100141.98
2023-04-20T06:57:29.862Z,100137.70
2023-04-20T06:59:59.270Z,100138.98
2023-04-20T07:02:27.729Z,100139.06
2023-04-20T07:05:01.770Z,100132.92
2023-04-20T07:07:30.093Z,100136.66
2023-04-20T07:09:59.015Z,100135.52
2023-04-20T07:12:27.332Z,100131.19
2023-04-20T07:14:55.769Z,100138.64
2023-04-20T07:17:27.333Z,100132.73
2023-04-20T07:19:56.462Z,100132.80
2023-04-20T07:22:25.210Z,100131.77
2023-04-20T07:24:53.281Z,100131.23
2023-04-20T07:27:21.384Z,100129.33
2023-04-20T07:29:49.392Z,100125.28
2023-04-20T07:32:17.482Z,100124.11
2023-04-20T07:34:45.777Z,100118.16
2023-04-20T07:37:13.931Z,100123.79
2023-04-20T07:39:42.224Z,100119.92
2023-04-20T07:42:10.262Z,100120.65
2023-04-20T07:44:38.567Z,100120.83
2023-04-20T07:47:06.612Z,100119.21
2023-04-20T07:49:38.485Z,100120.23
2023-04-20T07:52:16.514Z,100118.81
2023-04-20T07:54:45.801Z,100113.27
2023-04-20T07:57:14.086Z,100115.16
2023-04-20T07:59:42.320Z,100116.64
2023-04-20T08:02:11.056Z,100118.45
2023-04-20T08:04:39.875Z,100120.39
2023-04-20T08:07:08.427Z,100126.36
2023-04-20T08:09:37.138Z,100126.47
2023-04-20T08:12:05.641Z,100126.10
2023-04-20T08:14:34.265Z,100124.63
2023-04-20T08:17:02.442Z,100122.59
2023-04-20T08:19:30.570Z,100120.16
2023-04-20T08:21:59.068Z,100127.94
2023-04-20T08:24:28.239Z,100125.11
2023-04-20T08:26:56.749Z,100128.52
2023-04-20T08:29:26.146Z,100124.58
2023-04-20T08:31:54.456Z,100123.90
2023-04-20T08:34:22.559Z,100126.89
2023-04-20T08:36:51.105Z,100128.23
2023-04-20T08:39:20.715Z,100126.05
2023-04-20T08:41:53.743Z,100126.00
2023-04-20T08:44:22.400Z,100129.39
2023-04-20T08:46:50.745Z,100123.33
2023-04-20T08:49:19.472Z,100128.11
2023-04-20T08:51:48.012Z,100127.29
2023-04-20T08:54:16.718Z,100128.39
2023-04-20T08:56:46.031Z,100124.31
2023-04-20T08:59:14.922Z,100124.59
2023-04-20T09:01:43.402Z,100128.17
2023-04-20T09:04:27.872Z,100125.04
2023-04-20T09:06:56.552Z,100121.75
2023-04-20T09:09:25.729Z,100119.78
2023-04-20T09:12:04.086Z,100119.84
2023-04-20T09:14:42.594Z,100123.00
2023-04-20T09:17:14.545Z,100125.48
2023-04-20T09:19:45.992Z,100123.45
2023-04-20T09:22:13.977Z,100123.98
2023-04-20T09:24:42.922Z,100117.61
2023-04-20T09:27:17.973Z,100115.11
2023-04-20T09:29:57.806Z,100115.67
2023-04-20T09:45:00.767Z,100116.25
2023-04-20T09:47:30.078Z,100115.13
2023-04-20T09:50:00.120Z,100116.95
2023-04-20T09:52:30.656Z,100112.48
2023-04-20T09:54:59.121Z,100116.56
2023-04-20T09:57:27.224Z,100123.58
2023-04-20T09:59:55.953Z,100118.21
2023-04-20T10:02:24.119Z,100124.17
2023-04-20T10:04:55.854Z,100126.70
2023-04-20T10:07:27.803Z,100133.19
2023-04-20T10:10:06.476Z,100136.56
2023-04-20T10:12:37.092Z,100137.42
2023-04-20T10:15:05.485Z,100139.54
2023-04-20T10:17:35.159Z,100137.48
2023-04-20T10:20:04.848Z,100135.85
2023-04-20T10:22:33.765Z,100137.65
2023-04-20T10:25:02.947Z,100139.65
2023-04-20T10:27:32.600Z,100140.92
2023-04-20T10:30:11.074Z,100139.45
2023-04-20T10:32:39.282Z,100134.30
2023-04-20T10:35:10.553Z,100135.11
2023-04-20T10:37:51.676Z,100138.55
2023-04-20T10:40:27.199Z,100137.59
2023-04-20T10:42:55.537Z,100136.41
2023-04-20T10:45:37.130Z,100138.88
2023-04-20T10:48:09.753Z,100136.98
2023-04-20T10:50:37.941Z,100135.11
2023-04-20T10:53:06.250Z,100141.19
2023-04-20T10:55:34.937Z,100140.23
2023-04-20T10:58:03.018Z,100140.22
2023-04-20T11:00:31.250Z,100147.67
2023-04-20T11:02:59.532Z,100146.30
2023-04-20T11:05:27.973Z,100151.71
2023-04-20T11:08:00.250Z,100154.77
2023-04-20T11:10:39.000Z,100158.82
2023-04-20T11:13:07.563Z,100153.19
2023-04-20T11:15:36.363Z,100162.50
2023-04-20T11:18:08.305Z,100167.00
2023-04-20T11:20:36.612Z,100174.65
2023-04-20T11:23:06.077Z,100174.40
2023-04-20T11:25:34.714Z,100173.48
2023-04-20T11:28:09.296Z,100172.81
2023-04-20T11:30:41.570Z,100172.86
2023-04-20T11:33:10.362Z,100170.21
2023-04-20T11:35:40.194Z,100172.33
2023-04-20T11:38:08.435Z,100170.37
2023-04-20T11:40:36.732Z,100168.56
2023-04-20T11:43:05.085Z,100170.10
2023-04-20T11:45:36.739Z,100166.98
2023-04-20T11:48:06.179Z,100166.89
2023-04-20T11:50:34.489Z,100168.37
2023-04-20T11:53:02.680Z,100164.27
2023-04-20T11:55:31.216Z,100159.35
2023-04-20T11:57:59.386Z,100157.43
2023-04-20T12:00:27.612Z,100160.56
2023-04-20T12:02:55.827Z,100160.61
2023-04-20T12:05:24.125Z,100166.98
2023-04-20T12:07:52.392Z,100165.26
2023-04-20T12:10:20.556Z,100160.97
2023-04-20T12:12:49.364Z,100159.77
2023-04-20T12:15:17.509Z,100157.27
2023-04-20T12:17:45.873Z,100155.31
2023-04-20T12:20:14.431Z,100158.50
2023-04-20T12:22:42.780Z,100159.14
2023-04-20T12:25:11.194Z,100159.86
2023-04-20T12:27:39.607Z,100157.82
2023-04-20T12:30:09.564Z,100151.31
2023-04-20T12:32:39.781Z,100145.10
2023-04-20T12:35:08.672Z,100144.54
2023-04-20T12:37:36.971Z,100142.89
2023-04-20T12:40:06.543Z,100147.52
2023-04-20T12:42:35.349Z,100146.48
2023-04-20T12:45:03.826Z,100141.98
2023-04-20T12:47:32.047Z,100145.23
2023-04-20T12:50:00.178Z,100147.11
2023-04-20T12:52:29.305Z,100146.70
2023-04-20T12:54:57.811Z,100139.72
2023-04-20T12:57:25.982Z,100137.69
2023-04-20T12:59:54.701Z,100136.35
2023-04-20T13:02:22.900Z,100135.35
2023-04-20T13:04:52.610Z,100132.91
2023-04-20T13:07:20.791Z,100131.73
2023-04-20T13:09:48.991Z,100132.75
2023-04-20T13:12:17.595Z,100130.88
2023-04-20T13:14:46.009Z,100131.80
2023-04-20T13:17:14.050Z,100129.27
2023-04-20T13:19:42.100Z,100129.10
2023-04-20T13:22:11.822Z,100137.64
2023-04-20T13:24:41.442Z,100132.54
2023-04-20T13:27:09.610Z,100134.69
2023-04-20T13:29:38.602Z,100136.42
2023-04-20T13:32:06.948Z,100134.16
2023-04-20T13:34:35.403Z,100131.93
2023-04-20T13:37:03.685Z,100128.50
2023-04-20T13:39:31.779Z,100129.99
2023-04-20T13:41:59.804Z,100129.25
2023-04-20T13:44:28.016Z,100122.55
2023-04-20T13:46:56.556Z,100126.20
2023-04-20T13:49:24.779Z,100128.05
2023-04-20T13:51:53.056Z,100130.41
2023-04-20T13:54:21.282Z,100135.14
2023-04-20T13:56:49.429Z,100136.66
2023-04-20T13:59:17.500Z,100136.09
2023-04-20T14:01:45.989Z,100135.44
2023-04-20T14:04:16.887Z,100132.00
2023-04-20T14:06:45.419Z,100132.66
2023-04-20T14:09:13.456Z,100133.59
2023-04-20T14:11:43.628Z,100140.70
2023-04-20T14:14:12.153Z,100140.98
2023-04-20T14:16:45.078Z,100137.58
2023-04-20T14:19:13.755Z,100140.91
2023-04-20T14:21:44.251Z,100137.43
2023-04-20T14:24:12.333Z,100134.45
2023-04-20T14:26:40.518Z,100135.92
2023-04-20T14:29:08.551Z,100142.11
2023-04-20T14:31:37.358Z,100148.77
2023-04-20T14:34:05.702Z,100145.68
2023-04-20T14:36:34.965Z,100149.10
2023-04-20T14:39:03.455Z,100148.16
2023-04-20T14:41:34.224Z,100148.66
2023-04-20T14:44:02.452Z,100146.93
2023-04-20T14:46:30.720Z,100150.55
2023-04-20T14:48:58.854Z,100153.41
2023-04-20T14:51:27.183Z,100153.85
2023-04-20T14:53:55.428Z,100157.44
2023-04-20T14:56:23.693Z,100157.99
2023-04-20T14:58:52.411Z,100156.89
2023-04-20T15:01:21.495Z,100155.91
2023-04-20T15:03:49.760Z,100158.55
2023-04-20T15:06:17.991Z,100161.06
2023-04-20T15:08:46.682Z,100162.48
2023-04-20T15:11:14.871Z,100165.53
2023-04-20T15:13:43.793Z,100162.48
2023-04-20T15:16:12.176Z,100160.08
2023-04-20T15:18:40.412Z,100156.17
2023-04-20T15:21:08.799Z,100154.77
2023-04-20T15:23:37.088Z,100153.02
2023-04-20T15:26:07.006Z,100141.81
2023-04-20T15:28:35.215Z,100135.00
2023-04-20T15:31:03.360Z,100143.54
2023-04-20T15:33:31.682Z,100144.54
2023-04-20T15:35:59.722Z,100142.80
2023-04-20T15:38:27.857Z,100141.75
2023-04-20T15:40:55.863Z,100141.09
2023-04-20T15:43:24.068Z,100145.45
2023-04-20T15:45:52.399Z,100141.20
2023-04-20T15:48:21.061Z,100138.96
2023-04-20T15:50:52.524Z,100143.14
2023-04-20T15:53:22.291Z,100147.36
2023-04-20T15:55:50.359Z,100145.67
2023-04-20T15:58:18.428Z,100144.59
2023-04-20T16:00:46.480Z,100147.48
2023-04-20T16:03:14.731Z,100147.27
2023-04-20T16:05:43.060Z,100145.98
2023-04-20T16:08:11.234Z,100147.29
2023-04-20T16:10:39.368Z,100146.76
2023-04-20T16:13:07.700Z,100146.33
2023-04-20T16:15:35.994Z,100149.83
2023-04-20T16:18:05.470Z,100152.80
2023-04-20T16:20:33.716Z,100154.00
2023-04-20T16:23:01.786Z,100155.94
2023-04-20T16:25:29.904Z,100155.84
2023-04-20T16:27:58.135Z,100155.36
2023-04-20T16:30:26.301Z,100157.77
2023-04-20T16:32:54.448Z,100159.91
2023-04-20T16:35:22.642Z,100157.73
2023-04-20T16:37:51.463Z,100152.92
2023-04-20T16:40:21.120Z,100151.21
2023-04-20T16:42:49.212Z,100149.23
2023-04-20T16:45:17.424Z,100150.09
2023-04-20T16:47:46.328Z,100151.42
2023-04-20T16:50:19.716Z,100151.38
2023-04-20T16:52:49.248Z,100152.74
2023-04-20T16:55:17.302Z,100152.08
2023-04-20T16:57:45.380Z,100154.23
2023-04-20T17:00:14.332Z,100152.91
2023-04-20T17:02:42.753Z,100155.17
2023-04-20T17:05:11.108Z,100151.17
2023-04-20T17:07:40.186Z,100156.34
2023-04-20T17:10:08.438Z,100156.44
2023-04-20T17:12:36.673Z,100155.20
2023-04-20T17:15:05.073Z,100156.45
2023-04-20T17:17:34.216Z,100159.68
2023-04-20T17:20:02.422Z,100159.83
2023-04-20T17:22:31.317Z,100162.77
2023-04-20T17:25:00.581Z,100161.60
2023-04-20T17:27:28.876Z,100160.31
2023-04-20T17:29:57.708Z,100156.30
2023-04-20T17:32:26.879Z,100156.45
2023-04-20T17:34:54.990Z,100154.15
2023-04-20T17:37:23.390Z,100155.95
2023-04-20T17:39:51.407Z,100152.96
2023-04-20T17:42:19.536Z,100151.20
2023-04-20T17:44:47.554Z,100153.73
2023-04-20T17:47:15.744Z,100158.37
2023-04-20T17:49:44.038Z,100157.61
2023-04-20T17:52:15.282Z,100161.73
2023-04-20T17:54:43.486Z,100166.46
2023-04-20T17:57:11.701Z,100168.23
2023-04-20T17:59:42.354Z,100166.30
2023-04-20T18:02:12.004Z,100176.09
2023-04-20T18:04:40.549Z,100173.64
2023-04-20T18:07:09.035Z,100172.84
2023-04-20T18:09:38.965Z,100179.67
2023-04-20T18:12:08.706Z,100178.56
2023-04-20T18:14:37.547Z,100177.48
2023-04-20T18:17:05.669Z,100179.64
2023-04-20T18:19:33.900Z,100178.66
2023-04-20T18:22:01.980Z,100178.02
2023-04-20T18:24:30.137Z,100176.65
2023-04-20T18:26:58.274Z,100179.48
2023-04-20T18:29:26.317Z,100184.80
2023-04-20T18:31:56.221Z,100185.27
2023-04-20T18:34:25.367Z,100184.69
2023-04-20T18:36:53.576Z,100186.19
2023-04-20T18:39:21.677Z,100182.92
2023-04-20T18:41:49.820Z,100180.80
2023-04-20T18:44:18.122Z,100180.70
2023-04-20T18:46:46.653Z,100185.58
2023-04-20T18:49:14.898Z,100188.02
2023-04-20T18:51:43.264Z,100196.06
2023-04-20T18:54:11.432Z,100204.95
2023-04-20T18:56:39.817Z,100208.36
2023-04-20T18:59:09.096Z,100213.86
2023-04-20T19:01:40.752Z,100208.35
2023-04-20T19:04:09.237Z,100210.08
2023-04-20T19:06:39.083Z,100212.91
2023-04-20T19:09:08.386Z,100204.05
2023-04-20T19:11:36.649Z,100205.58
2023-04-20T19:14:04.753Z,100207.98
2023-04-20T19:16:33.356Z,100204.02
2023-04-20T19:19:01.518Z,100212.64
2023-04-20T19:21:30.083Z,100209.39
2023-04-20T19:23:58.231Z,100210.54
2023-04-20T19:26:26.190Z,100213.52
2023-04-20T19:28:54.287Z,100212.44
2023-04-20T19:31:22.371Z,100218.73
2023-04-20T19:33:50.404Z,100215.04
2023-04-20T19:36:19.228Z,100217.44
2023-04-20T19:38:47.273Z,100227.98
2023-04-20T19:41:15.483Z,100221.45
2023-04-20T19:43:43.508Z,100227.56
2023-04-20T19:46:11.804Z,100223.70
2023-04-20T19:48:39.945Z,100224.01
2023-04-20T19:51:08.016Z,100219.80
2023-04-20T19:53:37.342Z,100220.66
2023-04-20T19:56:06.727Z,100221.02
2023-04-20T19:58:34.993Z,100215.33
2023-04-20T20:01:03.820Z,100210.49
2023-04-20T20:03:32.767Z,100209.21
2023-04-20T20:06:01.131Z,100209.30
2023-04-20T20:08:30.160Z,100208.52
2023-04-20T20:10:58.247Z,100204.30
2023-04-20T20:13:26.467Z,100206.77
2023-04-20T20:15:54.638Z,100204.67
2023-04-20T20:18:23.479Z,100209.50
2023-04-20T20:20:51.603Z,100206.71
2023-04-20T20:23:19.687Z,100200.81
2023-04-20T20:25:47.687Z,100206.83
2023-04-20T20:28:17.239Z,100209.29
2023-04-20T20:30:45.530Z,100209.88
2023-04-20T20:33:13.882Z,100211.17
2023-04-20T20:35:42.587Z,100207.91
2023-04-20T20:38:11.093Z,100211.59
2023-04-20T20:40:39.969Z,100202.54
2023-04-20T20:43:08.703Z,100198.77
2023-04-20T20:45:37.340Z,100199.54
2023-04-20T20:48:05.651Z,100203.70
2023-04-20T20:50:33.913Z,100203.83
2023-04-20T20:53:02.256Z,100201.83
2023-04-20T20:55:30.519Z,100199.21
2023-04-20T20:57:58.534Z,100192.42
2023-04-20T21:00:27.156Z,100184.37
2023-04-20T21:02:57.208Z,100183.79
2023-04-20T21:05:25.489Z,100183.31
2023-04-20T21:07:53.596Z,100186.34
2023-04-20T21:10:21.718Z,100185.74
2023-04-20T21:12:49.733Z,100184.00
2023-04-20T21:15:17.965Z,100179.84
2023-04-20T21:17:46.166Z,100178.20
2023-04-20T21:20:14.394Z,100173.66
2023-04-20T21:22:43.211Z,100176.52
2023-04-20T21:25:11.258Z,100174.26
2023-04-20T21:27:39.768Z,100177.73
2023-04-20T21:30:08.641Z,100176.61
2023-04-20T21:32:37.343Z,100176.30
2023-04-20T21:35:06.172Z,100173.29
2023-04-20T21:37:34.302Z,100171.58
2023-04-20T21:40:02.352Z,100164.45
2023-04-20T21:42:30.674Z,100161.43
2023-04-20T21:44:58.720Z,100158.35
2023-04-20T21:47:26.817Z,100153.59
2023-04-20T21:52:24.924Z,100152.73
2023-04-20T21:54:53.123Z,100153.70
2023-04-20T21:57:21.447Z,100152.22
2023-04-20T21:59:49.593Z,100147.30
2023-04-20T22:02:17.978Z,100144.19
2023-04-20T22:04:46.828Z,100150.34
2023-04-20T22:07:17.874Z,100147.89
2023-04-20T22:09:45.984Z,100139.63
2023-04-20T22:12:14.070Z,100132.89
2023-04-20T22:14:42.111Z,100133.33
2023-04-20T22:17:11.946Z,100136.96
2023-04-20T22:19:40.437Z,100137.02
2023-04-20T22:22:08.916Z,100132.02
2023-04-20T22:24:37.093Z,100129.63
2023-04-20T22:27:05.363Z,100127.73
2023-04-20T22:29:33.683Z,100125.55
2023-04-20T22:32:01.700Z,100115.45
2023-04-20T22:34:30.005Z,100111.33
2023-04-20T22:36:58.385Z,100105.16
2023-04-20T22:39:26.509Z,100103.29
2023-04-20T22:41:54.522Z,100101.15
2023-04-20T22:44:22.656Z,100099.81
2023-04-20T22:46:51.358Z,100099.69
2023-04-20T22:49:19.759Z,100096.41
2023-04-20T22:51:48.196Z,100099.60
2023-04-20T22:54:16.231Z,100094.90
2023-04-20T22:56:44.248Z,100093.98
2023-04-20T22:59:12.370Z,100089.60
2023-04-20T23:01:40.568Z,100086.73
2023-04-20T23:04:08.957Z,100087.22
2023-04-20T23:06:37.983Z,100082.40
2023-04-20T23:09:08.304Z,100077.41
2023-04-20T23:11:39.004Z,100075.52
2023-04-20T23:14:07.586Z,100074.48
2023-04-20T23:16:35.659Z,100075.56
2023-04-20T23:19:03.806Z,100075.06
2023-04-20T23:21:32.971Z,100075.30
2023-04-20T23:24:01.114Z,100079.33
2023-04-20T23:26:29.407Z,100082.38
2023-04-20T23:28:57.515Z,100077.94
2023-04-20T23:31:25.897Z,100077.97
2023-04-20T23:33:53.921Z,100082.77
2023-04-20T23:36:21.935Z,100084.60
2023-04-20T23:38:49.982Z,100092.14
2023-04-20T23:41:18.184Z,100099.51
2023-04-20T23:43:46.290Z,100102.45
2023-04-20T23:46:15.245Z,100101.07
2023-04-20T23:48:43.350Z,100097.56
2023-04-20T23:51:11.444Z,100102.34
2023-04-20T23:53:39.633Z,100102.22
2023-04-20T23:56:07.980Z,100102.06
2023-04-20T23:58:36.533Z,100102.48
